sensor_id;sensor_type;location;lat;lon;timestamp;pressure;altitude;pressure_sealevel;temperature;humidity
66703;BME280;60933;46.398;-63.798;2023-03-03T00:00:34;100265.81;;;-5.34;75.87
66703;BME280;60933;46.398;-63.798;2023-03-03T00:03:04;100262.50;;;-5.33;76.23
66703;BME280;60933;46.398;-63.798;2023-03-03T00:05:32;100275.97;;;-5.31;76.15
66703;BME280;60933;46.398;-63.798;2023-03-03T00:07:59;100266.78;;;-5.31;75.96
66703;BME280;60933;46.398;-63.798;2023-03-03T00:10:25;100268.47;;;-5.30;75.71
66703;BME280;60933;46.398;-63.798;2023-03-03T00:12:51;100258.34;;;-5.31;75.68
66703;BME280;60933;46.398;-63.798;2023-03-03T00:15:23;100249.91;;;-5.33;75.48
66703;BME280;60933;46.398;-63.798;2023-03-03T00:17:50;100259.31;;;-5.28;75.26
66703;BME280;60933;46.398;-63.798;2023-03-03T00:20:37;100263.59;;;-5.25;75.05
66703;BME280;60933;46.398;-63.798;2023-03-03T00:23:33;100255.97;;;-5.27;74.66
66703;BME280;60933;46.398;-63.798;2023-03-03T00:26:01;100253.56;;;-5.23;74.45
66703;BME280;60933;46.398;-63.798;2023-03-03T00:28:30;100256.06;;;-5.25;74.22
66703;BME280;60933;46.398;-63.798;2023-03-03T00:31:01;100251.84;;;-5.25;73.64
66703;BME280;60933;46.398;-63.798;2023-03-03T00:33:44;100265.25;;;-5.26;73.33
66703;BME280;60933;46.398;-63.798;2023-03-03T00:38:41;100267.75;;;-5.26;73.28
66703;BME280;60933;46.398;-63.798;2023-03-03T00:43:43;100265.28;;;-5.24;74.02
66703;BME280;60933;46.398;-63.798;2023-03-03T00:46:09;100257.81;;;-5.22;74.14
66703;BME280;60933;46.398;-63.798;2023-03-03T00:48:41;100262.03;;;-5.21;74.14
66703;BME280;60933;46.398;-63.798;2023-03-03T00:51:31;100264.66;;;-5.17;74.25
66703;BME280;60933;46.398;-63.798;2023-03-03T00:54:00;100267.25;;;-5.15;74.53
66703;BME280;60933;46.398;-63.798;2023-03-03T00:56:26;100254.66;;;-5.15;74.17
66703;BME280;60933;46.398;-63.798;2023-03-03T00:58:52;100257.03;;;-5.20;73.82
66703;BME280;60933;46.398;-63.798;2023-03-03T01:01:19;100248.63;;;-5.20;74.54
66703;BME280;60933;46.398;-63.798;2023-03-03T01:03:44;100260.41;;;-5.19;74.67
66703;BME280;60933;46.398;-63.798;2023-03-03T01:06:11;100258.59;;;-5.23;74.92
66703;BME280;60933;46.398;-63.798;2023-03-03T01:08:38;100251.03;;;-5.25;75.30
66703;BME280;60933;46.398;-63.798;2023-03-03T01:11:13;100250.25;;;-5.22;75.45
66703;BME280;60933;46.398;-63.798;2023-03-03T01:13:42;100254.53;;;-5.20;75.60
66703;BME280;60933;46.398;-63.798;2023-03-03T01:16:09;100250.25;;;-5.22;75.78
66703;BME280;60933;46.398;-63.798;2023-03-03T01:18:35;100243.50;;;-5.23;75.63
66703;BME280;60933;46.398;-63.798;2023-03-03T01:21:02;100238.47;;;-5.23;76.76
66703;BME280;60933;46.398;-63.798;2023-03-03T01:23:28;100250.25;;;-5.22;76.19
66703;BME280;60933;46.398;-63.798;2023-03-03T01:25:54;100237.66;;;-5.22;76.50
66703;BME280;60933;46.398;-63.798;2023-03-03T01:28:20;100245.91;;;-5.27;76.09
66703;BME280;60933;46.398;-63.798;2023-03-03T01:30:47;100236.66;;;-5.28;76.69
66703;BME280;60933;46.398;-63.798;2023-03-03T01:33:13;100231.53;;;-5.31;77.39
66703;BME280;60933;46.398;-63.798;2023-03-03T01:35:43;100230.63;;;-5.33;77.43
66703;BME280;60933;46.398;-63.798;2023-03-03T01:38:10;100231.34;;;-5.37;77.43
66703;BME280;60933;46.398;-63.798;2023-03-03T01:40:36;100231.25;;;-5.40;77.83
66703;BME280;60933;46.398;-63.798;2023-03-03T01:43:03;100214.91;;;-5.53;77.84
66703;BME280;60933;46.398;-63.798;2023-03-03T01:45:31;100230.09;;;-5.50;78.75
66703;BME280;60933;46.398;-63.798;2023-03-03T01:48:06;100226.69;;;-5.52;79.10
66703;BME280;60933;46.398;-63.798;2023-03-03T01:50:47;100223.25;;;-5.54;79.54
66703;BME280;60933;46.398;-63.798;2023-03-03T01:53:18;100207.19;;;-5.58;79.67
66703;BME280;60933;46.398;-63.798;2023-03-03T01:55:46;100214.75;;;-5.58;80.39
66703;BME280;60933;46.398;-63.798;2023-03-03T01:58:27;100204.69;;;-5.58;80.43
66703;BME280;60933;46.398;-63.798;2023-03-03T02:01:02;100195.44;;;-5.59;80.43
66703;BME280;60933;46.398;-63.798;2023-03-03T02:03:29;100198.72;;;-5.61;80.69
66703;BME280;60933;46.398;-63.798;2023-03-03T02:05:58;100197.88;;;-5.62;81.49
66703;BME280;60933;46.398;-63.798;2023-03-03T02:08:33;100188.63;;;-5.63;81.38
66703;BME280;60933;46.398;-63.798;2023-03-03T02:11:02;100185.19;;;-5.65;81.43
66703;BME280;60933;46.398;-63.798;2023-03-03T02:13:29;100178.44;;;-5.66;81.92
66703;BME280;60933;46.398;-63.798;2023-03-03T02:15:55;100174.22;;;-5.67;81.93
66703;BME280;60933;46.398;-63.798;2023-03-03T02:18:21;100169.06;;;-5.72;81.88
66703;BME280;60933;46.398;-63.798;2023-03-03T02:21:04;100168.16;;;-5.74;82.14
66703;BME280;60933;46.398;-63.798;2023-03-03T02:26:15;100169.75;;;-5.76;82.33
66703;BME280;60933;46.398;-63.798;2023-03-03T02:28:42;100174.81;;;-5.74;82.75
66703;BME280;60933;46.398;-63.798;2023-03-03T02:31:11;100166.28;;;-5.79;82.67
66703;BME280;60933;46.398;-63.798;2023-03-03T02:33:47;100166.31;;;-5.78;82.64
66703;BME280;60933;46.398;-63.798;2023-03-03T02:36:15;100165.44;;;-5.80;82.71
66703;BME280;60933;46.398;-63.798;2023-03-03T02:39:14;100173.84;;;-5.79;83.09
66703;BME280;60933;46.398;-63.798;2023-03-03T02:44:29;100171.16;;;-5.84;83.36
66703;BME280;60933;46.398;-63.798;2023-03-03T02:46:56;100169.38;;;-5.88;83.94
66703;BME280;60933;46.398;-63.798;2023-03-03T02:49:25;100170.97;;;-5.90;84.17
66703;BME280;60933;46.398;-63.798;2023-03-03T02:51:53;100164.06;;;-5.96;83.99
66703;BME280;60933;46.398;-63.798;2023-03-03T02:54:21;100163.25;;;-5.96;84.15
66703;BME280;60933;46.398;-63.798;2023-03-03T02:56:47;100172.53;;;-5.94;84.45
66703;BME280;60933;46.398;-63.798;2023-03-03T02:59:13;100173.28;;;-5.96;84.49
66703;BME280;60933;46.398;-63.798;2023-03-03T03:01:40;100171.56;;;-5.97;84.92
66703;BME280;60933;46.398;-63.798;2023-03-03T03:06:34;100187.44;;;-6.00;85.15
66703;BME280;60933;46.398;-63.798;2023-03-03T03:09:00;100189.03;;;-6.02;85.13
66703;BME280;60933;46.398;-63.798;2023-03-03T03:11:26;100185.56;;;-6.06;84.93
66703;BME280;60933;46.398;-63.798;2023-03-03T03:13:52;100178.69;;;-6.11;85.49
66703;BME280;60933;46.398;-63.798;2023-03-03T03:16:18;100172.59;;;-6.18;85.29
66703;BME280;60933;46.398;-63.798;2023-03-03T03:18:44;100174.25;;;-6.18;85.23
66703;BME280;60933;46.398;-63.798;2023-03-03T03:21:12;100188.19;;;-6.27;85.34
66703;BME280;60933;46.398;-63.798;2023-03-03T03:23:38;100180.59;;;-6.30;85.72
66703;BME280;60933;46.398;-63.798;2023-03-03T03:26:06;100191.31;;;-6.34;85.54
66703;BME280;60933;46.398;-63.798;2023-03-03T03:28:32;100183.56;;;-6.40;85.45
66703;BME280;60933;46.398;-63.798;2023-03-03T03:30:58;100181.00;;;-6.42;85.77
66703;BME280;60933;46.398;-63.798;2023-03-03T03:33:24;100175.81;;;-6.46;86.40
66703;BME280;60933;46.398;-63.798;2023-03-03T03:35:53;100184.16;;;-6.47;86.66
66703;BME280;60933;46.398;-63.798;2023-03-03T03:38:21;100173.91;;;-6.54;87.20
66703;BME280;60933;46.398;-63.798;2023-03-03T03:40:47;100180.03;;;-6.45;87.74
66703;BME280;60933;46.398;-63.798;2023-03-03T03:43:13;100165.88;;;-6.43;87.75
66703;BME280;60933;46.398;-63.798;2023-03-03T03:45:41;100168.50;;;-6.40;87.72
66703;BME280;60933;46.398;-63.798;2023-03-03T03:48:08;100163.22;;;-6.48;87.88
66703;BME280;60933;46.398;-63.798;2023-03-03T03:50:34;100168.06;;;-6.53;87.58
66703;BME280;60933;46.398;-63.798;2023-03-03T03:53:00;100163.66;;;-6.60;87.34
66703;BME280;60933;46.398;-63.798;2023-03-03T03:55:26;100162.00;;;-6.58;87.54
66703;BME280;60933;46.398;-63.798;2023-03-03T03:57:54;100155.28;;;-6.59;87.80
66703;BME280;60933;46.398;-63.798;2023-03-03T04:00:20;100162.25;;;-6.52;88.33
66703;BME280;60933;46.398;-63.798;2023-03-03T04:02:47;100156.53;;;-6.47;88.68
66703;BME280;60933;46.398;-63.798;2023-03-03T04:05:13;100164.19;;;-6.44;89.09
66703;BME280;60933;46.398;-63.798;2023-03-03T04:07:39;100171.75;;;-6.43;88.88
66703;BME280;60933;46.398;-63.798;2023-03-03T04:10:05;100175.03;;;-6.45;88.93
66703;BME280;60933;46.398;-63.798;2023-03-03T04:12:31;100183.31;;;-6.48;88.93
66703;BME280;60933;46.398;-63.798;2023-03-03T04:15:08;100177.38;;;-6.50;88.94
66703;BME280;60933;46.398;-63.798;2023-03-03T04:17:34;100170.59;;;-6.53;88.74
66703;BME280;60933;46.398;-63.798;2023-03-03T04:20:00;100173.91;;;-6.54;89.18
66703;BME280;60933;46.398;-63.798;2023-03-03T04:22:28;100180.63;;;-6.53;88.88
66703;BME280;60933;46.398;-63.798;2023-03-03T04:25:02;100183.16;;;-6.53;89.25
66703;BME280;60933;46.398;-63.798;2023-03-03T04:27:36;100179.84;;;-6.52;88.97
66703;BME280;60933;46.398;-63.798;2023-03-03T04:30:04;100190.78;;;-6.49;89.15
66703;BME280;60933;46.398;-63.798;2023-03-03T04:32:31;100194.06;;;-6.50;89.10
66703;BME280;60933;46.398;-63.798;2023-03-03T04:34:58;100196.59;;;-6.50;89.46
66703;BME280;60933;46.398;-63.798;2023-03-03T04:37:24;100195.69;;;-6.53;89.32
66703;BME280;60933;46.398;-63.798;2023-03-03T04:39:50;100186.44;;;-6.54;89.32
66703;BME280;60933;46.398;-63.798;2023-03-03T04:42:16;100180.63;;;-6.53;89.00
66703;BME280;60933;46.398;-63.798;2023-03-03T04:44:42;100178.03;;;-6.54;89.29
66703;BME280;60933;46.398;-63.798;2023-03-03T04:47:08;100167.16;;;-6.55;89.28
66703;BME280;60933;46.398;-63.798;2023-03-03T04:49:34;100170.59;;;-6.53;89.22
66703;BME280;60933;46.398;-63.798;2023-03-03T04:52:00;100177.19;;;-6.55;89.27
66703;BME280;60933;46.398;-63.798;2023-03-03T04:54:26;100185.66;;;-6.53;89.13
66703;BME280;60933;46.398;-63.798;2023-03-03T04:56:53;100193.09;;;-6.54;89.66
66703;BME280;60933;46.398;-63.798;2023-03-03T04:59:19;100188.09;;;-6.54;89.69
66703;BME280;60933;46.398;-63.798;2023-03-03T05:01:45;100193.97;;;-6.54;89.46
66703;BME280;60933;46.398;-63.798;2023-03-03T05:04:11;100183.03;;;-6.56;89.60
66703;BME280;60933;46.398;-63.798;2023-03-03T05:06:37;100187.25;;;-6.55;89.75
66703;BME280;60933;46.398;-63.798;2023-03-03T05:09:03;100187.13;;;-6.58;89.48
66703;BME280;60933;46.398;-63.798;2023-03-03T05:11:29;100184.78;;;-6.53;89.88
66703;BME280;60933;46.398;-63.798;2023-03-03T05:13:57;100190.69;;;-6.53;89.52
66703;BME280;60933;46.398;-63.798;2023-03-03T05:16:23;100199.94;;;-6.52;89.67
66703;BME280;60933;46.398;-63.798;2023-03-03T05:18:49;100186.53;;;-6.50;90.18
66703;BME280;60933;46.398;-63.798;2023-03-03T05:21:15;100184.03;;;-6.50;90.10
66703;BME280;60933;46.398;-63.798;2023-03-03T05:23:41;100181.53;;;-6.50;89.88
66703;BME280;60933;46.398;-63.798;2023-03-03T05:26:07;100184.84;;;-6.52;89.78
66703;BME280;60933;46.398;-63.798;2023-03-03T05:28:33;100181.44;;;-6.54;89.98
66703;BME280;60933;46.398;-63.798;2023-03-03T05:30:59;100178.91;;;-6.54;90.03
66703;BME280;60933;46.398;-63.798;2023-03-03T05:33:25;100169.72;;;-6.53;90.11
66703;BME280;60933;46.398;-63.798;2023-03-03T05:35:56;100166.31;;;-6.55;90.25
66703;BME280;60933;46.398;-63.798;2023-03-03T05:38:23;100159.66;;;-6.53;90.49
66703;BME280;60933;46.398;-63.798;2023-03-03T05:40:49;100147.88;;;-6.56;90.93
66703;BME280;60933;46.398;-63.798;2023-03-03T05:43:16;100145.16;;;-6.62;90.78
66703;BME280;60933;46.398;-63.798;2023-03-03T05:45:42;100148.47;;;-6.63;91.10
66703;BME280;60933;46.398;-63.798;2023-03-03T05:48:09;100150.00;;;-6.66;91.11
66703;BME280;60933;46.398;-63.798;2023-03-03T05:50:36;100153.34;;;-6.66;91.12
66703;BME280;60933;46.398;-63.798;2023-03-03T05:53:03;100160.22;;;-6.62;91.24
66703;BME280;60933;46.398;-63.798;2023-03-03T05:55:29;100166.81;;;-6.64;91.13
66703;BME280;60933;46.398;-63.798;2023-03-03T05:57:55;100162.72;;;-6.62;91.79
66703;BME280;60933;46.398;-63.798;2023-03-03T06:00:21;100166.94;;;-6.61;91.58
66703;BME280;60933;46.398;-63.798;2023-03-03T06:02:47;100161.06;;;-6.61;91.56
66703;BME280;60933;46.398;-63.798;2023-03-03T06:05:13;100147.63;;;-6.63;92.25
66703;BME280;60933;46.398;-63.798;2023-03-03T06:07:39;100161.06;;;-6.61;91.85
66703;BME280;60933;46.398;-63.798;2023-03-03T06:10:06;100160.97;;;-6.64;92.18
66703;BME280;60933;46.398;-63.798;2023-03-03T06:12:32;100155.06;;;-6.65;92.26
66703;BME280;60933;46.398;-63.798;2023-03-03T06:14:58;100155.06;;;-6.65;92.21
66703;BME280;60933;46.398;-63.798;2023-03-03T06:17:24;100144.81;;;-6.71;91.98
66703;BME280;60933;46.398;-63.798;2023-03-03T06:19:50;100152.47;;;-6.68;92.12
66703;BME280;60933;46.398;-63.798;2023-03-03T06:22:16;100154.09;;;-6.69;92.29
66703;BME280;60933;46.398;-63.798;2023-03-03T06:24:42;100152.38;;;-6.70;92.70
66703;BME280;60933;46.398;-63.798;2023-03-03T06:27:09;100148.25;;;-6.69;92.32
66703;BME280;60933;46.398;-63.798;2023-03-03T06:29:35;100147.31;;;-6.71;92.31
66703;BME280;60933;46.398;-63.798;2023-03-03T06:32:01;100149.78;;;-6.73;92.54
66703;BME280;60933;46.398;-63.798;2023-03-03T06:34:27;100156.56;;;-6.70;92.64
66703;BME280;60933;46.398;-63.798;2023-03-03T06:36:53;100149.84;;;-6.71;92.69
66703;BME280;60933;46.398;-63.798;2023-03-03T06:39:19;100145.53;;;-6.75;92.52
66703;BME280;60933;46.398;-63.798;2023-03-03T06:41:45;100143.84;;;-6.75;92.99
66703;BME280;60933;46.398;-63.798;2023-03-03T06:44:11;100154.78;;;-6.74;93.31
66703;BME280;60933;46.398;-63.798;2023-03-03T06:46:37;100144.72;;;-6.74;92.77
66703;BME280;60933;46.398;-63.798;2023-03-03T06:49:03;100145.44;;;-6.77;93.27
66703;BME280;60933;46.398;-63.798;2023-03-03T06:51:32;100140.25;;;-6.81;93.31
66703;BME280;60933;46.398;-63.798;2023-03-03T06:54:02;100143.81;;;-6.76;93.07
66703;BME280;60933;46.398;-63.798;2023-03-03T06:56:35;100130.34;;;-6.78;93.08
66703;BME280;60933;46.398;-63.798;2023-03-03T06:59:05;100144.72;;;-6.74;93.33
66703;BME280;60933;46.398;-63.798;2023-03-03T07:01:36;100151.44;;;-6.73;93.58
66703;BME280;60933;46.398;-63.798;2023-03-03T07:04:33;100153.06;;;-6.75;93.34
66703;BME280;60933;46.398;-63.798;2023-03-03T07:07:25;100156.34;;;-6.76;93.28
66703;BME280;60933;46.398;-63.798;2023-03-03T07:09:53;100160.50;;;-6.77;93.65
66703;BME280;60933;46.398;-63.798;2023-03-03T07:12:29;100165.47;;;-6.78;93.48
66703;BME280;60933;46.398;-63.798;2023-03-03T07:15:12;100158.78;;;-6.78;93.70
66703;BME280;60933;46.398;-63.798;2023-03-03T07:17:44;100167.06;;;-6.80;93.46
66703;BME280;60933;46.398;-63.798;2023-03-03T07:20:20;100161.22;;;-6.81;93.49
66703;BME280;60933;46.398;-63.798;2023-03-03T07:22:47;100158.69;;;-6.81;93.98
66703;BME280;60933;46.398;-63.798;2023-03-03T07:27:52;100151.91;;;-6.84;93.63
66703;BME280;60933;46.398;-63.798;2023-03-03T07:30:24;100171.19;;;-6.82;94.04
66703;BME280;60933;46.398;-63.798;2023-03-03T07:32:53;100162.75;;;-6.85;93.96
66703;BME280;60933;46.398;-63.798;2023-03-03T07:40:48;100176.22;;;-6.82;93.97
66703;BME280;60933;46.398;-63.798;2023-03-03T07:43:26;100170.38;;;-6.81;93.75
66703;BME280;60933;46.398;-63.798;2023-03-03T07:45:59;100186.25;;;-6.82;93.74
66703;BME280;60933;46.398;-63.798;2023-03-03T07:48:35;100188.47;;;-6.90;93.50
66703;BME280;60933;46.398;-63.798;2023-03-03T07:51:21;100194.25;;;-6.93;93.53
66703;BME280;60933;46.398;-63.798;2023-03-03T07:53:50;100195.72;;;-6.98;93.72
66703;BME280;60933;46.398;-63.798;2023-03-03T07:56:29;100204.06;;;-6.99;93.42
66703;BME280;60933;46.398;-63.798;2023-03-03T07:58:55;100209.06;;;-6.99;93.74
66703;BME280;60933;46.398;-63.798;2023-03-03T08:01:40;100210.66;;;-7.01;94.02
66703;BME280;60933;46.398;-63.798;2023-03-03T08:07:02;100204.81;;;-7.02;94.07
66703;BME280;60933;46.398;-63.798;2023-03-03T08:09:37;100214.09;;;-6.99;93.67
66703;BME280;60933;46.398;-63.798;2023-03-03T08:14:37;100230.72;;;-7.01;93.23
66703;BME280;60933;46.398;-63.798;2023-03-03T08:17:23;100236.53;;;-7.02;93.84
66703;BME280;60933;46.398;-63.798;2023-03-03T08:19:52;100244.94;;;-7.02;93.39
66703;BME280;60933;46.398;-63.798;2023-03-03T08:22:32;100238.13;;;-7.04;94.00
66703;BME280;60933;46.398;-63.798;2023-03-03T08:25:00;100244.13;;;-7.01;93.86
66703;BME280;60933;46.398;-63.798;2023-03-03T08:27:27;100247.50;;;-7.00;93.94
66703;BME280;60933;46.398;-63.798;2023-03-03T08:29:53;100255.03;;;-7.00;93.89
66703;BME280;60933;46.398;-63.798;2023-03-03T08:32:19;100269.34;;;-6.97;93.45
66703;BME280;60933;46.398;-63.798;2023-03-03T08:34:45;100260.09;;;-6.98;93.69
66703;BME280;60933;46.398;-63.798;2023-03-03T08:37:11;100265.13;;;-6.98;93.65
66703;BME280;60933;46.398;-63.798;2023-03-03T08:39:37;100272.59;;;-7.00;93.94
66703;BME280;60933;46.398;-63.798;2023-03-03T08:42:03;100261.63;;;-7.02;93.59
66703;BME280;60933;46.398;-63.798;2023-03-03T08:44:29;100262.50;;;-7.02;93.72
66703;BME280;60933;46.398;-63.798;2023-03-03T08:46:55;100264.94;;;-7.03;93.24
66703;BME280;60933;46.398;-63.798;2023-03-03T08:49:21;100282.59;;;-7.02;93.20
66703;BME280;60933;46.398;-63.798;2023-03-03T08:51:47;100277.63;;;-7.00;93.70
66703;BME280;60933;46.398;-63.798;2023-03-03T08:54:13;100279.34;;;-6.99;93.26
66703;BME280;60933;46.398;-63.798;2023-03-03T08:56:39;100295.28;;;-6.97;93.77
66703;BME280;60933;46.398;-63.798;2023-03-03T08:59:05;100301.97;;;-6.97;93.17
66703;BME280;60933;46.398;-63.798;2023-03-03T09:01:31;100307.91;;;-6.95;93.76
66703;BME280;60933;46.398;-63.798;2023-03-03T09:03:58;100296.03;;;-7.00;93.54
66703;BME280;60933;46.398;-63.798;2023-03-03T09:06:24;100317.16;;;-6.94;93.69
66703;BME280;60933;46.398;-63.798;2023-03-03T09:08:50;100310.34;;;-6.97;93.62
66703;BME280;60933;46.398;-63.798;2023-03-03T09:11:25;100322.97;;;-6.95;92.95
66703;BME280;60933;46.398;-63.798;2023-03-03T09:14:13;100317.88;;;-6.97;93.58
66703;BME280;60933;46.398;-63.798;2023-03-03T09:16:43;100329.63;;;-6.96;93.46
66703;BME280;60933;46.398;-63.798;2023-03-03T09:19:31;100332.94;;;-6.97;93.13
66703;BME280;60933;46.398;-63.798;2023-03-03T09:22:02;100342.97;;;-6.97;92.94
66703;BME280;60933;46.398;-63.798;2023-03-03T09:24:36;100339.56;;;-6.99;92.79
66703;BME280;60933;46.398;-63.798;2023-03-03T09:27:14;100330.38;;;-6.98;92.61
66703;BME280;60933;46.398;-63.798;2023-03-03T09:29:43;100342.13;;;-6.97;93.31
66703;BME280;60933;46.398;-63.798;2023-03-03T09:34:53;100349.78;;;-6.94;93.09
66703;BME280;60933;46.398;-63.798;2023-03-03T09:37:29;100369.91;;;-6.93;92.85
66703;BME280;60933;46.398;-63.798;2023-03-03T09:39:58;100383.38;;;-6.91;92.71
66703;BME280;60933;46.398;-63.798;2023-03-03T09:42:45;100370.16;;;-6.87;92.98
66703;BME280;60933;46.398;-63.798;2023-03-03T09:48:49;100377.88;;;-6.82;93.15
66703;BME280;60933;46.398;-63.798;2023-03-03T09:57:13;100394.94;;;-6.73;93.39
66703;BME280;60933;46.398;-63.798;2023-03-03T10:00:02;100399.25;;;-6.71;93.02
66703;BME280;60933;46.398;-63.798;2023-03-03T10:05:52;100410.31;;;-6.65;92.86
66703;BME280;60933;46.398;-63.798;2023-03-03T10:09:26;100418.78;;;-6.63;93.24
66703;BME280;60933;46.398;-63.798;2023-03-03T10:11:56;100426.41;;;-6.60;92.97
66703;BME280;60933;46.398;-63.798;2023-03-03T10:15:05;100423.16;;;-6.58;93.38
66703;BME280;60933;46.398;-63.798;2023-03-03T10:18:38;100430.03;;;-6.54;92.97
66703;BME280;60933;46.398;-63.798;2023-03-03T10:23:37;100440.38;;;-6.46;92.95
66703;BME280;60933;46.398;-63.798;2023-03-03T10:34:49;100469.28;;;-6.34;93.18
66703;BME280;60933;46.398;-63.798;2023-03-03T10:42:54;100472.03;;;-6.28;93.12
66703;BME280;60933;46.398;-63.798;2023-03-03T10:48:49;100496.56;;;-6.23;92.84
66703;BME280;60933;46.398;-63.798;2023-03-03T10:53:59;100501.69;;;-6.20;93.11
66703;BME280;60933;46.398;-63.798;2023-03-03T10:56:54;100508.44;;;-6.18;93.10
66703;BME280;60933;46.398;-63.798;2023-03-03T11:02:56;100525.34;;;-6.14;92.81
66703;BME280;60933;46.398;-63.798;2023-03-03T11:07:47;100532.19;;;-6.10;92.37
66703;BME280;60933;46.398;-63.798;2023-03-03T11:13:01;100541.66;;;-6.05;92.13
66703;BME280;60933;46.398;-63.798;2023-03-03T11:15:50;100555.97;;;-6.02;92.13
66703;BME280;60933;46.398;-63.798;2023-03-03T11:18:28;100544.34;;;-6.00;91.46
66703;BME280;60933;46.398;-63.798;2023-03-03T11:29:03;100582.47;;;-5.88;91.05
66703;BME280;60933;46.398;-63.798;2023-03-03T11:37:27;100581.88;;;-5.82;90.53
66703;BME280;60933;46.398;-63.798;2023-03-03T11:40:04;100590.25;;;-5.81;90.19
66703;BME280;60933;46.398;-63.798;2023-03-03T11:42:57;100598.72;;;-5.79;89.74
66703;BME280;60933;46.398;-63.798;2023-03-03T11:45:36;100596.28;;;-5.78;89.35
66703;BME280;60933;46.398;-63.798;2023-03-03T11:53:28;100610.28;;;-5.63;88.40
66703;BME280;60933;46.398;-63.798;2023-03-03T11:56:06;100624.66;;;-5.59;88.33
66703;BME280;60933;46.398;-63.798;2023-03-03T12:02:49;100638.44;;;-5.49;87.32
66703;BME280;60933;46.398;-63.798;2023-03-03T12:05:05;100639.38;;;-5.47;87.38
66703;BME280;60933;46.398;-63.798;2023-03-03T12:10:29;100645.34;;;-5.45;86.74
66703;BME280;60933;46.398;-63.798;2023-03-03T12:13:15;100637.53;;;-5.51;86.45
66703;BME280;60933;46.398;-63.798;2023-03-03T12:15:54;100651.16;;;-5.46;86.24
66703;BME280;60933;46.398;-63.798;2023-03-03T12:18:40;100658.63;;;-5.48;86.34
66703;BME280;60933;46.398;-63.798;2023-03-03T12:24:30;100653.59;;;-5.48;86.21
66703;BME280;60933;46.398;-63.798;2023-03-03T12:35:44;100675.94;;;-5.34;85.73
66703;BME280;60933;46.398;-63.798;2023-03-03T12:48:58;100676.72;;;-4.91;84.58
66703;BME280;60933;46.398;-63.798;2023-03-03T12:51:28;100682.25;;;-4.78;84.09
66703;BME280;60933;46.398;-63.798;2023-03-03T12:59:33;100695.09;;;-4.47;82.96
66703;BME280;60933;46.398;-63.798;2023-03-03T13:05:03;100707.00;;;-4.19;82.86
66703;BME280;60933;46.398;-63.798;2023-03-03T13:08:22;100702.34;;;-4.08;82.20
66703;BME280;60933;46.398;-63.798;2023-03-03T13:10:44;100705.38;;;-3.92;82.02
66703;BME280;60933;46.398;-63.798;2023-03-03T13:13:36;100704.06;;;-3.81;81.17
66703;BME280;60933;46.398;-63.798;2023-03-03T13:16:05;100718.75;;;-3.69;81.10
66703;BME280;60933;46.398;-63.798;2023-03-03T13:18:59;100715.16;;;-3.50;80.72
66703;BME280;60933;46.398;-63.798;2023-03-03T13:21:56;100719.50;;;-3.46;79.53
66703;BME280;60933;46.398;-63.798;2023-03-03T13:24:32;100708.97;;;-3.32;79.05
66703;BME280;60933;46.398;-63.798;2023-03-03T13:27:17;100721.59;;;-3.32;78.96
66703;BME280;60933;46.398;-63.798;2023-03-03T13:30:15;100728.84;;;-3.16;78.31
66703;BME280;60933;46.398;-63.798;2023-03-03T13:32:59;100741.81;;;-3.05;77.96
66703;BME280;60933;46.398;-63.798;2023-03-03T13:37:58;100743.84;;;-2.64;76.55
66703;BME280;60933;46.398;-63.798;2023-03-03T13:40:37;100746.97;;;-2.44;75.97
66703;BME280;60933;46.398;-63.798;2023-03-03T13:43:28;100741.13;;;-2.42;75.30
66703;BME280;60933;46.398;-63.798;2023-03-03T13:46:05;100739.94;;;-2.24;73.87
66703;BME280;60933;46.398;-63.798;2023-03-03T13:51:34;100743.31;;;-1.92;73.59
66703;BME280;60933;46.398;-63.798;2023-03-03T13:57:09;100736.63;;;-1.56;72.12
66703;BME280;60933;46.398;-63.798;2023-03-03T13:59:52;100744.47;;;-1.47;71.42
66703;BME280;60933;46.398;-63.798;2023-03-03T14:02:29;100735.16;;;-1.48;69.84
66703;BME280;60933;46.398;-63.798;2023-03-03T14:05:15;100740.78;;;-1.58;70.36
66703;BME280;60933;46.398;-63.798;2023-03-03T14:07:55;100745.28;;;-1.48;71.09
66703;BME280;60933;46.398;-63.798;2023-03-03T14:16:14;100746.69;;;-1.24;69.03
66703;BME280;60933;46.398;-63.798;2023-03-03T14:21:28;100753.16;;;-0.99;68.24
66703;BME280;60933;46.398;-63.798;2023-03-03T14:24:16;100756.53;;;-0.98;68.44
66703;BME280;60933;46.398;-63.798;2023-03-03T14:26:52;100755.00;;;-0.91;69.05
66703;BME280;60933;46.398;-63.798;2023-03-03T14:32:19;100756.53;;;-1.00;69.00
66703;BME280;60933;46.398;-63.798;2023-03-03T14:34:58;100746.22;;;-1.07;68.67
66703;BME280;60933;46.398;-63.798;2023-03-03T14:37:28;100751.81;;;-0.83;68.08
66703;BME280;60933;46.398;-63.798;2023-03-03T14:40:34;100754.16;;;-0.54;67.90
66703;BME280;60933;46.398;-63.798;2023-03-03T14:43:18;100761.09;;;-0.43;66.62
66703;BME280;60933;46.398;-63.798;2023-03-03T14:45:46;100770.53;;;-0.38;67.00
66703;BME280;60933;46.398;-63.798;2023-03-03T14:50:39;100780.81;;;-0.71;66.62
66703;BME280;60933;46.398;-63.798;2023-03-03T14:53:19;100776.19;;;-0.89;67.28
66703;BME280;60933;46.398;-63.798;2023-03-03T14:55:52;100770.09;;;-0.59;68.28
66703;BME280;60933;46.398;-63.798;2023-03-03T14:58:29;100778.81;;;-0.46;67.38
66703;BME280;60933;46.398;-63.798;2023-03-03T15:06:29;100786.13;;;-0.59;67.58
66703;BME280;60933;46.398;-63.798;2023-03-03T15:08:56;100779.56;;;-0.51;68.47
66703;BME280;60933;46.398;-63.798;2023-03-03T15:11:25;100776.50;;;-0.34;66.91
66703;BME280;60933;46.398;-63.798;2023-03-03T15:14:08;100775.59;;;-0.38;65.99
66703;BME280;60933;46.398;-63.798;2023-03-03T15:16:34;100777.97;;;-0.45;67.21
66703;BME280;60933;46.398;-63.798;2023-03-03T15:19:09;100784.16;;;-0.72;67.00
66703;BME280;60933;46.398;-63.798;2023-03-03T15:21:51;100791.00;;;-0.68;67.74
66703;BME280;60933;46.398;-63.798;2023-03-03T15:24:36;100786.81;;;-0.68;67.91
66703;BME280;60933;46.398;-63.798;2023-03-03T15:27:20;100793.84;;;-0.54;67.89
66703;BME280;60933;46.398;-63.798;2023-03-03T15:30:08;100794.88;;;-0.46;67.14
66703;BME280;60933;46.398;-63.798;2023-03-03T15:32:58;100789.94;;;-0.38;66.86